createdAt,value
2022-09-03T00:00:25.481Z,101708.16
2022-09-03T00:03:00.857Z,101709.91
2022-09-03T00:05:40.056Z,101703.34
2022-09-03T00:08:13.461Z,101701.00
2022-09-03T00:10:47.994Z,101701.75
2022-09-03T00:13:21.001Z,101695.78
2022-09-03T00:15:49.706Z,101699.50
2022-09-03T00:18:21.813Z,101701.44
2022-09-03T00:20:54.404Z,101702.97
2022-09-03T00:23:25.819Z,101699.06
2022-09-03T00:25:57.609Z,101699.84
2022-09-03T00:28:30.377Z,101705.78
2022-09-03T00:31:07.600Z,101703.19
2022-09-03T00:33:38.984Z,101697.06
2022-09-03T00:36:15.971Z,101704.94
2022-09-03T00:38:44.225Z,101702.69
2022-09-03T00:41:22.240Z,101710.31
2022-09-03T00:44:16.907Z,101701.84
2022-09-03T00:46:51.309Z,101698.28
2022-09-03T00:49:30.668Z,101697.84
2022-09-03T00:52:11.508Z,101699.47
2022-09-03T00:54:49.995Z,101699.16
2022-09-03T00:57:31.955Z,101694.97
2022-09-03T01:00:07.744Z,101703.25
2022-09-03T01:02:47.657Z,101703.88
2022-09-03T01:05:30.850Z,101705.28
2022-09-03T01:08:15.898Z,101697.88
2022-09-03T01:10:53.515Z,101698.81
2022-09-03T01:13:24.117Z,101700.00
2022-09-03T01:16:09.052Z,101699.28
2022-09-03T01:18:46.581Z,101702.16
2022-09-03T01:21:47.213Z,101698.41
2022-09-03T01:24:43.933Z,101690.75
2022-09-03T01:27:28.313Z,101697.00
2022-09-03T01:30:06.065Z,101697.97
2022-09-03T01:32:43.065Z,101696.69
2022-09-03T01:35:19.760Z,101694.97
2022-09-03T01:38:01.939Z,101692.06
2022-09-03T01:40:38.514Z,101682.28
2022-09-03T01:43:24.025Z,101693.13
2022-09-03T01:46:00.514Z,101692.06
2022-09-03T01:48:37.864Z,101689.25
2022-09-03T01:51:13.036Z,101689.78
2022-09-03T01:54:07.695Z,101690.03
2022-09-03T01:56:56.749Z,101691.84
2022-09-03T01:59:31.071Z,101693.03
2022-09-03T02:02:06.981Z,101688.41
2022-09-03T02:04:35.415Z,101685.94
2022-09-03T02:07:05.902Z,101683.63
2022-09-03T02:09:33.913Z,101686.69
2022-09-03T02:12:10.005Z,101691.81
2022-09-03T02:14:38.311Z,101689.88
2022-09-03T02:17:08.520Z,101690.75
2022-09-03T02:19:38.455Z,101689.88
2022-09-03T02:22:07.220Z,101692.34
2022-09-03T02:24:35.510Z,101690.63
2022-09-03T02:27:03.670Z,101684.50
2022-09-03T02:29:31.913Z,101686.97
2022-09-03T02:32:00.107Z,101689.00
2022-09-03T02:34:29.594Z,101686.66
2022-09-03T02:36:57.705Z,101687.72
2022-09-03T02:39:27.726Z,101685.78
2022-09-03T02:41:58.659Z,101681.78
2022-09-03T02:44:31.833Z,101686.53
2022-09-03T02:47:01.662Z,101677.78
2022-09-03T02:49:34.005Z,101678.00
2022-09-03T02:52:06.100Z,101693.38
2022-09-03T02:54:36.454Z,101686.59
2022-09-03T02:57:04.868Z,101681.69
2022-09-03T02:59:33.255Z,101684.56
2022-09-03T03:02:01.435Z,101695.19
2022-09-03T03:04:31.804Z,101681.75
2022-09-03T03:07:00.279Z,101690.91
2022-09-03T03:09:29.054Z,101685.41
2022-09-03T03:11:57.231Z,101670.97
2022-09-03T03:14:25.184Z,101680.47
2022-09-03T03:16:53.038Z,101679.69
2022-09-03T03:19:20.976Z,101684.31
2022-09-03T03:21:50.323Z,101685.06
2022-09-03T03:24:18.204Z,101682.25
2022-09-03T03:26:46.103Z,101676.03
2022-09-03T03:29:18.747Z,101684.66
2022-09-03T03:31:46.651Z,101684.81
2022-09-03T03:34:14.509Z,101678.38
2022-09-03T03:36:42.412Z,101678.16
2022-09-03T03:39:11.677Z,101681.72
2022-09-03T03:41:39.632Z,101683.53
2022-09-03T03:44:08.882Z,101684.38
2022-09-03T03:46:38.878Z,101693.19
2022-09-03T03:49:08.067Z,101692.97
2022-09-03T03:51:37.325Z,101705.53
2022-09-03T03:54:06.344Z,101710.63
2022-09-03T03:56:36.103Z,101701.81
2022-09-03T03:59:05.210Z,101699.63
2022-09-03T04:01:33.450Z,101696.06
2022-09-03T04:04:02.594Z,101704.59
2022-09-03T04:06:30.972Z,101696.06
2022-09-03T04:08:58.815Z,101704.81
2022-09-03T04:11:27.376Z,101693.69
2022-09-03T04:13:56.795Z,101698.41
2022-09-03T04:16:25.751Z,101706.22
2022-09-03T04:18:54.912Z,101706.66
2022-09-03T04:21:24.408Z,101710.53
2022-09-03T04:23:54.045Z,101699.13
2022-09-03T04:26:23.763Z,101701.56
2022-09-03T04:28:52.014Z,101696.84
2022-09-03T04:31:22.552Z,101690.38
2022-09-03T04:33:53.932Z,101699.06
2022-09-03T04:36:24.238Z,101697.34
2022-09-03T04:38:54.172Z,101690.91
2022-09-03T04:41:24.906Z,101696.28
2022-09-03T04:43:53.205Z,101699.63
2022-09-03T04:46:23.951Z,101701.56
2022-09-03T04:48:53.007Z,101701.56
2022-09-03T04:51:23.365Z,101710.28
2022-09-03T04:53:56.399Z,101709.97
2022-09-03T04:56:26.579Z,101708.25
2022-09-03T04:58:57.413Z,101707.19
2022-09-03T05:01:29.147Z,101706.00
2022-09-03T05:03:58.177Z,101719.38
2022-09-03T05:06:26.400Z,101714.53
2022-09-03T05:08:55.825Z,101715.50
2022-09-03T05:11:24.648Z,101715.25
2022-09-03T05:13:54.608Z,101720.31
2022-09-03T05:16:24.206Z,101708.25
2022-09-03T05:18:55.632Z,101709.34
2022-09-03T05:21:24.707Z,101717.22
2022-09-03T05:23:53.918Z,101704.34
2022-09-03T05:26:25.574Z,101705.22
2022-09-03T05:28:56.355Z,101704.88
2022-09-03T05:31:28.302Z,101702.78
2022-09-03T05:33:59.777Z,101690.84
2022-09-03T05:36:30.263Z,101694.09
2022-09-03T05:38:59.715Z,101700.31
2022-09-03T05:41:29.114Z,101701.00
2022-09-03T05:43:59.157Z,101694.94
2022-09-03T05:46:31.822Z,101701.28
2022-09-03T05:49:05.005Z,101693.22
2022-09-03T05:51:34.062Z,101699.38
2022-09-03T05:54:02.844Z,101703.47
2022-09-03T05:56:33.028Z,101695.19
2022-09-03T05:59:04.855Z,101697.06
2022-09-03T06:01:35.137Z,101712.31
2022-09-03T06:04:06.218Z,101712.34
2022-09-03T06:06:36.030Z,101718.47
2022-09-03T06:09:05.985Z,101705.78
2022-09-03T06:11:37.418Z,101711.69
2022-09-03T06:14:08.219Z,101711.69
2022-09-03T06:16:37.940Z,101711.81
2022-09-03T06:19:09.686Z,101705.16
2022-09-03T06:21:40.186Z,101709.91
2022-09-03T06:24:08.286Z,101711.22
2022-09-03T06:26:36.998Z,101708.63
2022-09-03T06:29:05.258Z,101702.84
2022-09-03T06:31:33.485Z,101706.91
2022-09-03T06:34:04.201Z,101712.19
2022-09-03T06:36:34.082Z,101705.72
2022-09-03T06:39:01.967Z,101712.19
2022-09-03T06:41:34.249Z,101716.38
2022-09-03T06:44:03.935Z,101715.63
2022-09-03T06:46:33.330Z,101712.16
2022-09-03T06:49:01.496Z,101714.84
2022-09-03T06:51:30.940Z,101711.81
2022-09-03T06:54:06.385Z,101720.81
2022-09-03T06:56:39.855Z,101731.22
2022-09-03T06:59:10.256Z,101720.88
2022-09-03T07:01:44.336Z,101726.66
2022-09-03T07:04:14.130Z,101723.31
2022-09-03T07:06:44.366Z,101726.13
2022-09-03T07:09:15.772Z,101717.56
2022-09-03T07:11:48.036Z,101725.66
2022-09-03T07:14:17.459Z,101722.28
2022-09-03T07:16:46.176Z,101715.41
2022-09-03T07:19:14.464Z,101719.78
2022-09-03T07:21:49.270Z,101720.44
2022-09-03T07:24:22.295Z,101715.56
2022-09-03T07:26:50.555Z,101713.13
2022-09-03T07:29:21.744Z,101708.44
2022-09-03T07:31:52.791Z,101710.66
2022-09-03T07:34:24.319Z,101708.72
2022-09-03T07:36:54.160Z,101711.47
2022-09-03T07:39:23.568Z,101700.69
2022-09-03T07:41:51.668Z,101700.03
2022-09-03T07:44:20.678Z,101711.72
2022-09-03T07:46:51.074Z,101712.72
2022-09-03T07:49:20.392Z,101712.13
2022-09-03T07:51:50.838Z,101700.59
2022-09-03T07:54:19.591Z,101704.72
2022-09-03T07:56:48.965Z,101703.63
2022-09-03T07:59:16.907Z,101697.75
2022-09-03T08:01:44.904Z,101703.13
2022-09-03T08:04:12.981Z,101705.00
2022-09-03T08:06:42.247Z,101701.09
2022-09-03T08:09:13.833Z,101706.09
2022-09-03T08:11:43.798Z,101702.94
2022-09-03T08:14:16.647Z,101699.59
2022-09-03T08:16:47.404Z,101697.31
2022-09-03T08:19:15.933Z,101700.19
2022-09-03T08:21:43.833Z,101696.72
2022-09-03T08:24:13.082Z,101701.69
2022-09-03T08:26:50.393Z,101687.53
2022-09-03T08:29:21.367Z,101693.44
2022-09-03T08:31:49.965Z,101703.28
2022-09-03T08:34:18.205Z,101696.09
2022-09-03T08:36:47.506Z,101702.97
2022-09-03T08:39:16.010Z,101687.31
2022-09-03T08:42:03.377Z,101684.78
2022-09-03T08:44:40.117Z,101685.13
2022-09-03T08:47:13.604Z,101691.13
2022-09-03T08:49:47.832Z,101688.56
2022-09-03T08:52:25.028Z,101686.09
2022-09-03T08:54:57.010Z,101682.00
2022-09-03T08:57:26.885Z,101678.78
2022-09-03T08:59:57.378Z,101685.13
2022-09-03T09:02:34.570Z,101690.41
2022-09-03T09:05:14.252Z,101699.00
2022-09-03T09:07:53.395Z,101687.66
2022-09-03T09:10:28.409Z,101688.94
2022-09-03T09:13:10.756Z,101690.41
2022-09-03T09:15:50.842Z,101698.97
2022-09-03T09:18:27.113Z,101688.44
2022-09-03T09:21:00.688Z,101690.41
2022-09-03T09:23:32.439Z,101698.47
2022-09-03T09:26:06.768Z,101676.59
2022-09-03T09:28:37.767Z,101691.00
2022-09-03T09:31:08.999Z,101675.41
2022-09-03T09:33:37.617Z,101677.72
2022-09-03T09:36:11.728Z,101669.91
2022-09-03T09:38:40.892Z,101678.44
2022-09-03T09:41:13.663Z,101687.91
2022-09-03T09:43:42.246Z,101668.88
2022-09-03T09:46:16.668Z,101675.88
2022-09-03T09:48:52.032Z,101662.63
2022-09-03T09:51:22.489Z,101670.63
2022-09-03T09:54:02.583Z,101662.78
2022-09-03T09:56:31.105Z,101672.19
2022-09-03T09:59:07.079Z,101649.63
2022-09-03T10:01:39.368Z,101667.84
2022-09-03T10:04:12.426Z,101656.06
2022-09-03T10:06:57.294Z,101650.28
2022-09-03T10:09:31.473Z,101659.50
2022-09-03T10:12:11.311Z,101651.47
2022-09-03T10:14:43.646Z,101655.53
2022-09-03T10:17:20.716Z,101658.56
2022-09-03T10:20:20.588Z,101635.03
2022-09-03T10:22:57.007Z,101652.06
2022-09-03T10:25:30.758Z,101647.44
2022-09-03T10:28:01.481Z,101637.13
2022-09-03T10:30:31.079Z,101638.09
2022-09-03T10:33:10.277Z,101633.97
2022-09-03T10:35:47.244Z,101637.75
2022-09-03T10:38:23.708Z,101631.59
2022-09-03T10:40:58.089Z,101634.34
2022-09-03T10:43:46.732Z,101632.31
2022-09-03T10:46:23.812Z,101628.50
2022-09-03T10:49:20.167Z,101636.28
2022-09-03T10:51:54.498Z,101636.09
2022-09-03T10:54:46.722Z,101624.31
2022-09-03T10:57:26.542Z,101633.25
2022-09-03T11:00:06.197Z,101610.97
2022-09-03T11:02:56.095Z,101627.69
2022-09-03T11:05:31.266Z,101622.94
2022-09-03T11:08:03.585Z,101611.06
2022-09-03T11:10:34.233Z,101620.72
2022-09-03T11:13:10.120Z,101603.16
2022-09-03T11:15:44.213Z,101605.94
2022-09-03T11:18:21.122Z,101611.03
2022-09-03T11:20:55.066Z,101606.06
2022-09-03T11:23:25.503Z,101603.06
2022-09-03T11:25:59.851Z,101602.16
2022-09-03T11:28:40.508Z,101604.38
2022-09-03T11:31:19.962Z,101609.38
2022-09-03T11:33:53.288Z,101590.06
2022-09-03T11:36:31.886Z,101609.91
2022-09-03T11:39:00.553Z,101595.72
2022-09-03T11:41:30.134Z,101595.16
2022-09-03T11:44:02.457Z,101599.19
2022-09-03T11:46:33.249Z,101587.56
2022-09-03T11:49:12.521Z,101596.53
2022-09-03T11:51:44.144Z,101582.44
2022-09-03T11:54:27.287Z,101590.91
2022-09-03T11:57:11.718Z,101579.22
2022-09-03T11:59:41.653Z,101583.25
2022-09-03T12:02:22.115Z,101571.75
2022-09-03T12:05:01.144Z,101578.53
2022-09-03T12:07:43.999Z,101571.63
2022-09-03T12:10:27.546Z,101584.59
2022-09-03T12:13:14.145Z,101576.31
2022-09-03T12:16:29.070Z,101578.03
2022-09-03T12:19:02.509Z,101579.38
2022-09-03T12:21:30.787Z,101572.38
2022-09-03T12:24:03.716Z,101575.63
2022-09-03T12:26:31.802Z,101562.94
2022-09-03T12:29:01.327Z,101574.03
2022-09-03T12:31:31.482Z,101564.88
2022-09-03T12:34:01.882Z,101568.81
2022-09-03T12:36:39.877Z,101565.31
2022-09-03T12:39:13.388Z,101563.13
2022-09-03T12:41:57.338Z,101559.44
2022-09-03T12:44:31.444Z,101560.97
2022-09-03T12:49:52.551Z,101555.03
2022-09-03T12:52:26.425Z,101564.03
2022-09-03T12:54:59.909Z,101549.06
2022-09-03T12:57:33.123Z,101562.88
2022-09-03T13:00:06.906Z,101558.56
2022-09-03T13:02:41.196Z,101543.03
2022-09-03T13:05:15.723Z,101533.38
2022-09-03T13:07:51.498Z,101535.72
2022-09-03T13:10:27.532Z,101536.38
2022-09-03T13:13:00.875Z,101524.47
2022-09-03T13:15:30.073Z,101540.97
2022-09-03T13:18:18.313Z,101536.50
2022-09-03T13:21:09.362Z,101538.66
2022-09-03T13:23:50.698Z,101540.34
2022-09-03T13:26:30.736Z,101524.50
2022-09-03T13:29:16.616Z,101515.31
2022-09-03T13:31:49.124Z,101533.47
2022-09-03T13:34:23.717Z,101515.78
2022-09-03T13:36:55.813Z,101521.75
2022-09-03T13:39:29.889Z,101528.19
2022-09-03T13:42:07.355Z,101529.63
2022-09-03T13:44:43.887Z,101529.47
2022-09-03T13:47:24.647Z,101523.41
2022-09-03T13:50:13.663Z,101526.69
2022-09-03T13:52:47.686Z,101520.19
2022-09-03T13:55:23.357Z,101528.75
2022-09-03T13:58:01.709Z,101534.19
2022-09-03T14:00:34.115Z,101534.66
2022-09-03T14:03:12.087Z,101537.06
2022-09-03T14:06:01.648Z,101517.81
2022-09-03T14:08:38.923Z,101530.06
2022-09-03T14:11:21.316Z,101532.59
2022-09-03T14:14:03.357Z,101527.59
2022-09-03T14:16:41.217Z,101513.00
2022-09-03T14:19:16.566Z,101505.22
2022-09-03T14:21:48.848Z,101504.88
2022-09-03T14:24:23.357Z,101511.41
2022-09-03T14:26:53.743Z,101503.69
2022-09-03T14:29:29.813Z,101511.94
2022-09-03T14:32:24.345Z,101511.34
2022-09-03T14:35:22.486Z,101510.63
2022-09-03T14:38:26.311Z,101513.91
2022-09-03T14:41:04.735Z,101513.78
2022-09-03T14:43:57.934Z,101504.00
2022-09-03T14:46:38.308Z,101519.13
2022-09-03T14:49:38.526Z,101514.75
2022-09-03T14:52:22.760Z,101520.00
2022-09-03T14:55:15.168Z,101504.72
2022-09-03T14:58:07.120Z,101507.34
2022-09-03T15:00:47.428Z,101516.50
2022-09-03T15:03:58.387Z,101521.63
2022-09-03T15:06:36.916Z,101511.56
2022-09-03T15:09:23.649Z,101502.53
2022-09-03T15:11:57.013Z,101513.03
2022-09-03T15:14:30.989Z,101522.47
2022-09-03T15:17:02.731Z,101494.88
2022-09-03T15:19:56.811Z,101496.38
2022-09-03T15:22:47.973Z,101505.16
2022-09-03T15:25:26.468Z,101500.94
2022-09-03T15:54:54.725Z,101516.19
2022-09-03T15:57:27.638Z,101510.50
2022-09-03T16:00:02.224Z,101507.97
2022-09-03T16:02:35.057Z,101514.56
2022-09-03T16:05:14.316Z,101513.69
2022-09-03T16:07:58.644Z,101516.47
2022-09-03T16:10:43.939Z,101520.59
2022-09-03T16:13:40.277Z,101520.78
2022-09-03T16:16:12.055Z,101534.16
2022-09-03T16:18:47.956Z,101521.38
2022-09-03T16:21:27.677Z,101523.38
2022-09-03T16:24:01.766Z,101520.81
2022-09-03T16:26:38.409Z,101524.31
2022-09-03T16:29:10.464Z,101520.19
2022-09-03T16:31:49.471Z,101518.78
2022-09-03T16:34:29.499Z,101524.13
2022-09-03T16:37:07.871Z,101530.06
2022-09-03T16:39:46.136Z,101535.06
2022-09-03T16:42:26.283Z,101524.34
2022-09-03T16:45:05.806Z,101515.94
2022-09-03T16:47:50.518Z,101523.72
2022-09-03T16:50:33.011Z,101522.78
2022-09-03T16:53:10.733Z,101525.66
2022-09-03T16:56:00.748Z,101520.53
2022-09-03T16:58:40.878Z,101530.72
2022-09-03T17:01:24.336Z,101527.56
2022-09-03T17:04:22.505Z,101530.94
2022-09-03T17:07:09.687Z,101537.81
2022-09-03T17:09:56.673Z,101525.53
2022-09-03T17:12:34.395Z,101533.03
2022-09-03T17:15:23.172Z,101526.91
2022-09-03T17:18:18.758Z,101535.25
2022-09-03T17:20:54.082Z,101532.25
2022-09-03T17:23:38.152Z,101536.38
2022-09-03T17:26:12.862Z,101530.84
2022-09-03T17:28:59.007Z,101528.72
2022-09-03T17:31:46.969Z,101533.78
2022-09-03T17:34:29.587Z,101532.47
2022-09-03T17:37:09.529Z,101534.06
2022-09-03T17:40:05.242Z,101540.66
2022-09-03T17:42:45.567Z,101543.78
2022-09-03T17:45:18.247Z,101546.00
2022-09-03T17:48:23.825Z,101549.53
2022-09-03T17:50:58.373Z,101558.41
2022-09-03T17:53:41.114Z,101558.13
2022-09-03T17:56:20.096Z,101564.00
2022-09-03T17:58:54.112Z,101570.28
2022-09-03T18:01:27.226Z,101575.31
2022-09-03T18:04:03.364Z,101580.69
2022-09-03T18:06:43.472Z,101575.84
2022-09-03T18:09:23.374Z,101580.69
2022-09-03T18:11:57.796Z,101579.00
2022-09-03T18:14:31.903Z,101586.81
2022-09-03T18:17:05.656Z,101592.97
2022-09-03T18:19:57.838Z,101584.72
2022-09-03T18:22:50.957Z,101602.09
2022-09-03T18:25:36.544Z,101604.06
2022-09-03T18:28:27.686Z,101600.66
2022-09-03T18:31:13.405Z,101606.03
2022-09-03T18:33:58.867Z,101623.16
2022-09-03T18:36:46.012Z,101619.47
2022-09-03T18:39:35.919Z,101630.16
2022-09-03T18:42:31.351Z,101620.72
2022-09-03T18:45:24.291Z,101628.50
2022-09-03T18:48:25.691Z,101624.78
2022-09-03T18:51:17.704Z,101630.47
2022-09-03T18:54:20.375Z,101634.75
2022-09-03T18:57:07.715Z,101640.53
2022-09-03T19:00:23.323Z,101634.84
2022-09-03T19:03:26.059Z,101641.91
2022-09-03T19:06:21.858Z,101647.88
2022-09-03T19:09:15.913Z,101641.72
2022-09-03T19:12:13.031Z,101643.78
2022-09-03T19:15:08.005Z,101645.28
2022-09-03T19:18:12.137Z,101647.31
2022-09-03T19:21:00.546Z,101651.50
2022-09-03T19:23:45.960Z,101649.66
2022-09-03T19:26:40.012Z,101650.09
2022-09-03T19:29:37.650Z,101647.41
2022-09-03T19:32:29.936Z,101646.69
2022-09-03T19:35:27.643Z,101646.78
2022-09-03T19:38:24.362Z,101655.81
2022-09-03T19:41:19.943Z,101661.00
2022-09-03T19:44:18.739Z,101659.16
2022-09-03T19:47:08.795Z,101651.19
2022-09-03T19:50:06.261Z,101662.41
2022-09-03T19:53:02.052Z,101658.63
2022-09-03T19:55:52.932Z,101654.94
2022-09-03T19:58:44.085Z,101657.56
2022-09-03T20:01:31.968Z,101665.81
2022-09-03T20:04:22.647Z,101659.25
2022-09-03T20:07:08.064Z,101664.94
2022-09-03T20:09:58.584Z,101665.06
2022-09-03T20:12:31.278Z,101665.06
2022-09-03T20:14:59.449Z,101673.41
2022-09-03T20:17:39.490Z,101670.72
2022-09-03T20:20:25.259Z,101677.13
2022-09-03T20:22:59.359Z,101680.19
2022-09-03T20:26:01.533Z,101689.94
2022-09-03T20:28:46.602Z,101683.94
2022-09-03T20:31:22.946Z,101688.59
2022-09-03T20:34:09.211Z,101686.91
2022-09-03T20:36:51.897Z,101689.59
2022-09-03T20:39:37.352Z,101695.72
2022-09-03T20:42:19.442Z,101691.63
2022-09-03T20:44:55.387Z,101696.22
2022-09-03T20:47:45.287Z,101701.63
2022-09-03T20:50:25.737Z,101699.53
2022-09-03T20:53:05.439Z,101700.41
2022-09-03T20:55:43.633Z,101696.97
2022-09-03T20:58:18.044Z,101696.34
2022-09-03T21:00:52.232Z,101700.91
2022-09-03T21:03:23.002Z,101704.81
2022-09-03T21:06:13.026Z,101690.81
2022-09-03T21:09:03.176Z,101699.28
2022-09-03T21:11:39.039Z,101705.28
2022-09-03T21:14:22.120Z,101708.97
2022-09-03T21:17:01.262Z,101698.53
2022-09-03T21:19:50.410Z,101705.06
2022-09-03T21:22:30.576Z,101701.00
2022-09-03T21:25:04.566Z,101705.66
2022-09-03T21:27:39.520Z,101707.75
2022-09-03T21:30:10.325Z,101715.09
2022-09-03T21:32:45.622Z,101708.69
2022-09-03T21:35:21.884Z,101709.06
2022-09-03T21:37:58.606Z,101710.28
2022-09-03T21:40:32.303Z,101717.88
2022-09-03T21:43:10.508Z,101719.84
2022-09-03T21:45:46.313Z,101735.06
2022-09-03T21:48:21.471Z,101730.28
2022-09-03T21:50:55.678Z,101727.50
2022-09-03T21:53:35.115Z,101726.44
2022-09-03T21:56:30.431Z,101726.44
2022-09-03T21:59:09.441Z,101725.97
2022-09-03T22:01:50.789Z,101731.19
2022-09-03T22:04:18.702Z,101732.53
2022-09-03T22:06:57.621Z,101731.03
2022-09-03T22:09:33.059Z,101728.06
2022-09-03T22:12:07.192Z,101722.44
2022-09-03T22:14:43.183Z,101725.59
2022-09-03T22:17:16.892Z,101726.22
2022-09-03T22:19:45.671Z,101727.84
2022-09-03T22:22:19.292Z,101724.72
2022-09-03T22:24:55.208Z,101722.78
2022-09-03T22:27:30.071Z,101722.91
2022-09-03T22:30:06.723Z,101725.47
2022-09-03T22:32:46.639Z,101726.69
2022-09-03T22:35:37.563Z,101727.56
2022-09-03T22:38:34.062Z,101728.00
2022-09-03T22:41:12.325Z,101724.81
2022-09-03T22:43:43.654Z,101730.44
2022-09-03T22:46:14.584Z,101729.59
2022-09-03T22:49:11.961Z,101728.72
2022-09-03T22:52:06.748Z,101721.06
2022-09-03T22:54:53.973Z,101717.00
2022-09-03T22:57:27.403Z,101722.41
2022-09-03T23:00:00.906Z,101728.66
2022-09-03T23:02:31.211Z,101727.69
2022-09-03T23:05:06.355Z,101735.03
2022-09-03T23:07:46.450Z,101734.06
2022-09-03T23:10:24.366Z,101736.13
2022-09-03T23:13:05.714Z,101732.69
2022-09-03T23:15:35.724Z,101738.44
2022-09-03T23:18:08.941Z,101731.94
2022-09-03T23:20:40.329Z,101744.97
2022-09-03T23:23:16.608Z,101737.31
2022-09-03T23:25:48.973Z,101738.75
2022-09-03T23:28:25.376Z,101736.81
2022-09-03T23:30:54.844Z,101733.47
2022-09-03T23:33:22.708Z,101740.47
2022-09-03T23:35:57.860Z,101731.47
2022-09-03T23:38:36.685Z,101735.88
2022-09-03T23:41:09.048Z,101732.09
2022-09-03T23:44:01.695Z,101739.00
2022-09-03T23:46:37.892Z,101741.06
2022-09-03T23:49:27.153Z,101739.06
2022-09-03T23:52:11.056Z,101739.31
2022-09-03T23:54:41.148Z,101740.75
2022-09-03T23:57:19.807Z,101740.63
